Time;durP1;ratioP1;P1;durP2;ratioP2;P2;SDS_P1;SDS_P2;PMS_P1;PMS_P2;Temp;Humidity;BMP_temperature;BMP_pressure;BME280_temperature;BME280_humidity;BME280_pressure;Samples;Min_cycle;Max_cycle;Signal;HPM_P1;HPM_P2
2022/05/20 00:03:29;;;;;;;26.67;20.95;;;;;;;12.36;100.00;102217.09;10346418;28;20037;-76
2022/05/20 00:08:29;;;;;;;41.53;21.70;;;;;;;12.29;100.00;102216.97;10330216;28;20030;-76
2022/05/20 00:13:30;;;;;;;26.50;19.98;;;;;;;12.20;100.00;102213.44;10330220;28;20462;-76
2022/05/20 00:18:30;;;;;;;24.98;18.25;;;;;;;12.14;100.00;102214.13;10329859;28;20034;-76
2022/05/20 00:23:32;;;;;;;25.73;18.42;;;;;;;12.14;100.00;102216.00;10347218;28;20035;-76
2022/05/20 00:28:33;;;;;;;29.90;18.83;;;;;;;12.10;100.00;102205.50;10347501;28;20085;-76
2022/05/20 00:33:34;;;;;;;24.48;18.02;;;;;;;12.09;100.00;102209.25;10347245;28;20034;-76
2022/05/20 00:38:34;;;;;;;28.85;19.95;;;;;;;12.03;100.00;102203.69;10347019;28;20038;-76
2022/05/20 00:43:45;;;;;;;28.25;19.33;;;;;;;11.98;100.00;102206.06;10329533;28;20494;-76
2022/05/20 00:48:45;;;;;;;22.67;20.15;;;;;;;11.94;100.00;102200.13;10345553;28;20097;-76
2022/05/20 00:53:58;;;;;;;26.15;20.77;;;;;;;11.90;100.00;102208.78;10330186;28;20085;-76
2022/05/20 00:58:58;;;;;;;22.90;20.48;;;;;;;11.89;100.00;102210.66;10347369;28;20034;-76
2022/05/20 01:03:58;;;;;;;23.95;16.50;;;;;;;11.85;100.00;102202.00;10347460;28;20121;-76
2022/05/20 01:08:59;;;;;;;33.03;18.45;;;;;;;11.86;100.00;102195.56;10341966;28;20038;-76
2022/05/20 01:13:59;;;;;;;22.08;17.60;;;;;;;11.91;100.00;102184.19;10341283;28;20062;-76
2022/05/20 01:19:00;;;;;;;17.33;15.05;;;;;;;11.91;100.00;102165.19;10340789;28;20039;-76
2022/05/20 01:24:01;;;;;;;22.25;16.58;;;;;;;11.90;100.00;102162.63;10339383;28;20441;-76
2022/05/20 01:29:01;;;;;;;23.92;14.80;;;;;;;11.83;100.00;102159.75;10323845;28;20078;-77
2022/05/20 01:34:02;;;;;;;25.85;15.70;;;;;;;11.80;100.00;102144.66;10342139;28;20462;-77
2022/05/20 01:39:02;;;;;;;24.55;19.02;;;;;;;11.82;100.00;102153.47;10341620;28;20124;-76
2022/05/20 01:44:22;;;;;;;27.42;21.35;;;;;;;11.85;100.00;102146.88;10340889;28;20121;-76
2022/05/20 01:49:25;;;;;;;26.75;23.00;;;;;;;11.82;100.00;102149.91;10339264;28;20121;-76
2022/05/20 01:54:33;;;;;;;38.90;25.52;;;;;;;11.81;100.00;102151.78;10339305;28;20031;-76
2022/05/20 01:59:38;;;;;;;32.05;23.70;;;;;;;11.80;100.00;102141.09;10321755;28;20029;-76
2022/05/20 02:04:46;;;;;;;31.80;23.45;;;;;;;11.78;100.00;102152.16;10339935;28;20042;-75
2022/05/20 02:09:48;;;;;;;34.40;28.30;;;;;;;11.80;100.00;102147.38;10328078;28;20126;-75
2022/05/20 02:14:54;;;;;;;35.47;29.58;;;;;;;11.81;100.00;102142.81;10347884;28;20037;-75
2022/05/20 02:19:59;;;;;;;37.33;27.33;;;;;;;11.78;100.00;102133.16;10347701;28;20105;-75
2022/05/20 02:25:01;;;;;;;34.35;24.33;;;;;;;11.77;100.00;102139.59;10347340;28;20382;-75
2022/05/20 02:30:04;;;;;;;36.28;21.50;;;;;;;11.65;100.00;102141.00;10329283;28;20113;-75
2022/05/20 02:35:05;;;;;;;24.75;20.65;;;;;;;11.56;100.00;102132.03;10345040;28;20027;-75
2022/05/20 02:40:07;;;;;;;30.70;22.35;;;;;;;11.55;100.00;102140.31;10338221;28;20047;-75
2022/05/20 02:45:08;;;;;;;28.88;23.02;;;;;;;11.61;100.00;102126.06;10355990;28;20235;-75
2022/05/20 02:50:10;;;;;;;35.13;25.25;;;;;;;11.72;100.00;102131.13;10348561;28;20104;-75
2022/05/20 02:55:11;;;;;;;33.80;25.55;;;;;;;11.78;100.00;102138.56;10353236;28;20062;-75
2022/05/20 03:05:45;;;;;;;25.98;23.33;;;;;;;11.94;100.00;102147.72;10299476;28;20101;-75
2022/05/20 03:10:45;;;;;;;34.05;27.23;;;;;;;12.02;100.00;102147.66;10342949;28;20042;-75
2022/05/20 03:15:46;;;;;;;34.90;26.20;;;;;;;12.12;100.00;102142.00;10344291;28;20046;-76
2022/05/20 03:20:46;;;;;;;31.75;26.20;;;;;;;12.16;100.00;102136.06;10342462;28;20394;-74
2022/05/20 03:25:46;;;;;;;36.72;26.30;;;;;;;12.24;100.00;102125.13;10343790;28;20067;-75
2022/05/20 03:30:47;;;;;;;45.45;29.73;;;;;;;12.29;100.00;102122.75;10342680;28;20046;-75
2022/05/20 03:35:48;;;;;;;38.67;31.38;;;;;;;12.31;100.00;102115.25;10340973;28;20038;-75
2022/05/20 03:40:49;;;;;;;33.50;29.77;;;;;;;12.27;100.00;102108.50;10345263;28;20462;-75
2022/05/20 03:45:51;;;;;;;37.70;30.90;;;;;;;12.13;100.00;102103.84;10340643;28;20038;-75
2022/05/20 03:50:51;;;;;;;35.15;28.50;;;;;;;12.11;100.00;102105.88;10340506;28;20038;-75
2022/05/20 03:55:52;;;;;;;35.97;29.63;;;;;;;12.07;100.00;102096.41;10338327;28;20343;-75
2022/05/20 04:06:12;;;;;;;32.22;28.77;;;;;;;12.05;100.00;102069.41;10336449;28;20031;-75
2022/05/20 04:11:13;;;;;;;47.08;27.52;;;;;;;12.05;100.00;102098.44;10339068;28;20046;-75
2022/05/20 04:16:14;;;;;;;41.17;30.95;;;;;;;12.00;100.00;102090.84;10334568;28;20031;-75
2022/05/20 04:21:15;;;;;;;41.47;32.13;;;;;;;12.12;100.00;102104.84;10335195;28;20031;-75
2022/05/20 04:26:15;;;;;;;48.72;32.83;;;;;;;12.21;100.00;102103.78;10333853;28;20058;-75
2022/05/20 04:31:16;;;;;;;53.53;34.67;;;;;;;12.30;100.00;102101.84;10336702;28;20465;-75
2022/05/20 04:36:16;;;;;;;50.83;37.50;;;;;;;12.37;100.00;102107.41;10322691;28;20030;-74
2022/05/20 04:52:01;;;;;;;45.15;33.75;;;;;;;12.83;100.00;102111.00;10351391;28;20117;-75
2022/05/20 04:57:01;;;;;;;44.80;32.80;;;;;;;13.47;100.00;102107.84;10350589;28;20031;-75
2022/05/20 05:02:02;;;;;;;44.65;31.88;;;;;;;14.21;100.00;102110.47;10352530;28;20034;-75
2022/05/20 05:07:03;;;;;;;40.30;31.00;;;;;;;14.69;100.00;102109.97;10354435;28;20454;-75
2022/05/20 05:12:04;;;;;;;36.80;29.50;;;;;;;15.10;100.00;102113.69;10335503;28;20066;-76
2022/05/20 05:17:06;;;;;;;33.42;25.65;;;;;;;15.53;100.00;102116.28;10355958;28;20038;-75
2022/05/20 05:22:07;;;;;;;31.23;26.42;;;;;;;15.80;100.00;102108.28;10323654;28;20050;-75
2022/05/20 05:27:07;;;;;;;36.95;26.33;;;;;;;15.94;100.00;102107.28;10353138;28;20058;-75
2022/05/20 05:32:08;;;;;;;45.80;26.98;;;;;;;16.03;100.00;102107.97;10328257;28;20129;-76
2022/05/20 05:37:10;;;;;;;31.52;27.83;;;;;;;16.65;100.00;102095.91;10350876;28;20037;-74
2022/05/20 05:42:10;;;;;;;48.75;29.65;;;;;;;17.18;100.00;102090.47;10358767;28;20058;-75
2022/05/20 05:47:11;;;;;;;45.63;31.75;;;;;;;16.62;100.00;102098.22;10369196;28;20030;-76
2022/05/20 05:52:11;;;;;;;40.75;29.98;;;;;;;17.16;100.00;102097.19;10369183;28;20034;-76
2022/05/20 05:57:11;;;;;;;45.38;30.20;;;;;;;16.75;100.00;102090.03;10344744;28;20038;-77
2022/05/20 06:02:12;;;;;;;46.90;31.23;;;;;;;17.29;100.00;102086.22;10357213;28;20042;-76
2022/05/20 06:07:14;;;;;;;43.10;28.75;;;;;;;18.21;100.00;102092.47;10344816;28;20497;-75
2022/05/20 06:12:14;;;;;;;30.13;24.75;;;;;;;19.01;100.00;102073.56;10341382;28;20037;-75
2022/05/20 06:17:16;;;;;;;31.48;22.35;;;;;;;19.27;100.00;102072.47;10359006;28;20069;-77
2022/05/20 06:22:16;;;;;;;28.92;21.77;;;;;;;18.19;100.00;102082.78;10354040;28;20124;-76
2022/05/20 06:27:16;;;;;;;22.95;18.60;;;;;;;17.23;100.00;102078.03;10351599;28;20065;-76
2022/05/20 06:32:17;;;;;;;26.45;19.77;;;;;;;17.09;100.00;102083.53;10349461;28;20061;-75
2022/05/20 06:42:46;;;;;;;25.92;20.42;;;;;;;17.96;100.00;102075.94;10353467;28;20472;-76
2022/05/20 06:47:47;;;;;;;23.48;19.05;;;;;;;18.94;100.00;102071.94;10349311;28;20030;-76
2022/05/20 06:52:47;;;;;;;32.17;17.90;;;;;;;18.62;100.00;102062.91;10344278;28;20046;-76
2022/05/20 06:57:47;;;;;;;26.60;16.77;;;;;;;18.11;100.00;102062.78;10344874;28;20045;-76
2022/05/20 07:02:48;;;;;;;31.33;16.30;;;;;;;18.52;100.00;102063.38;10346745;28;20035;-76
2022/05/20 07:07:48;;;;;;;28.50;18.63;;;;;;;19.05;100.00;102052.84;10343590;28;20042;-76
2022/05/20 07:12:49;;;;;;;25.52;16.17;;;;;;;18.94;100.00;102041.75;10345893;28;20516;-76
2022/05/20 07:17:49;;;;;;;23.52;15.98;;;;;;;19.79;100.00;102033.66;10343349;28;20384;-77
2022/05/20 07:22:49;;;;;;;19.65;15.95;;;;;;;21.05;100.00;102028.09;10323296;28;20041;-76
2022/05/20 07:27:50;;;;;;;18.00;15.77;;;;;;;20.65;100.00;102018.63;10338967;28;20054;-76
2022/05/20 07:32:50;;;;;;;21.05;12.75;;;;;;;20.50;100.00;101996.22;10341175;28;20093;-76
2022/05/20 07:37:51;;;;;;;10.45;8.15;;;;;;;19.55;100.00;101979.59;10343203;28;20030;-76
2022/05/20 07:42:51;;;;;;;10.65;8.40;;;;;;;19.24;100.00;101986.94;10328333;28;20118;-76
2022/05/20 07:47:51;;;;;;;13.20;9.85;;;;;;;19.19;100.00;101984.06;10355782;28;20038;-76
2022/05/20 07:58:15;;;;;;;7.75;6.95;;;;;;;20.79;100.00;101974.34;10337252;28;20038;-76
2022/05/20 08:04:52;;;;;;;10.60;8.00;;;;;;;20.94;100.00;101951.84;10325281;28;20086;-77
2022/05/20 08:08:36;;;;;;;10.00;7.80;;;;;;;20.83;100.00;101959.03;10344444;28;20046;-75
2022/05/20 08:13:36;;;;;;;14.68;8.20;;;;;;;19.97;100.00;101955.78;10333472;28;20482;-76
2022/05/20 08:18:37;;;;;;;8.85;7.95;;;;;;;20.23;100.00;101962.81;10338866;28;20053;-76
2022/05/20 08:23:38;;;;;;;13.90;9.93;;;;;;;20.51;100.00;101942.00;10326056;28;20363;-75
2022/05/20 08:28:38;;;;;;;11.45;9.75;;;;;;;20.27;100.00;101931.00;10324566;28;20090;-76
2022/05/20 08:33:38;;;;;;;10.77;8.18;;;;;;;20.44;100.00;101917.38;10341588;28;20477;-76
2022/05/20 08:38:40;;;;;;;14.02;6.55;;;;;;;20.44;100.00;101906.34;10342701;28;20045;-76
2022/05/20 08:43:40;;;;;;;8.77;6.68;;;;;;;20.59;97.64;101870.97;10329591;28;20181;-76
2022/05/20 08:48:42;;;;;;;12.10;6.18;;;;;;;20.66;98.90;101865.34;10341008;28;20042;-77
2022/05/20 08:53:44;;;;;;;8.93;5.32;;;;;;;20.97;99.83;101850.31;10323306;28;20031;-76
2022/05/20 08:58:56;;;;;;;10.35;6.90;;;;;;;20.84;94.79;101872.63;10345436;28;20035;-75
2022/05/20 09:03:56;;;;;;;6.00;5.40;;;;;;;20.48;97.73;101860.78;10350485;28;20037;-75
2022/05/20 09:09:12;;;;;;;21.35;7.45;;;;;;;20.63;100.00;101866.66;10351184;28;20363;-76
2022/05/20 09:19:33;;;;;;;9.35;7.65;;;;;;;20.44;98.40;101851.34;10336164;28;20035;-75
2022/05/20 09:24:42;;;;;;;11.23;7.57;;;;;;;20.51;91.87;101841.06;10345490;28;20042;-75
2022/05/20 09:29:47;;;;;;;9.10;6.75;;;;;;;20.66;95.54;101827.63;10344314;28;20438;-76
2022/05/20 09:34:53;;;;;;;8.95;6.65;;;;;;;20.57;88.56;101807.06;10341055;28;20050;-75
2022/05/20 09:39:53;;;;;;;11.52;6.43;;;;;;;20.32;86.41;101788.06;10323133;28;20031;-76
2022/05/20 09:44:58;;;;;;;5.68;5.15;;;;;;;20.44;89.90;101775.13;10339378;28;20379;-76
2022/05/20 09:50:17;;;;;;;10.68;6.30;;;;;;;20.60;81.14;101759.81;10320832;28;20026;-76
2022/05/20 09:55:31;;;;;;;5.40;4.55;;;;;;;20.47;83.75;101731.72;10345275;28;20105;-75
2022/05/20 10:00:32;;;;;;;10.68;6.10;;;;;;;20.79;88.50;101723.84;10347958;28;20030;-75
2022/05/20 10:05:52;;;;;;;5.65;5.10;;;;;;;20.96;86.48;101724.72;10344666;28;20027;-76
2022/05/20 10:11:15;;;;;;;8.07;5.80;;;;;;;20.68;79.31;101703.56;10346337;28;20034;-76
2022/05/20 10:16:34;;;;;;;7.18;5.95;;;;;;;20.69;81.03;101676.88;10328960;28;20057;-76
2022/05/20 10:21:38;;;;;;;8.95;6.82;;;;;;;20.65;75.37;101644.34;10351022;28;20034;-75
2022/05/20 10:26:59;;;;;;;7.65;6.93;;;;;;;20.71;75.79;101619.63;10351954;28;20050;-75
2022/05/20 10:37:47;;;;;;;9.23;6.90;;;;;;;20.23;81.78;101596.16;10340666;28;20038;-75
2022/05/20 10:42:57;;;;;;;6.35;5.75;;;;;;;19.65;83.11;101596.06;10322388;28;20085;-76
2022/05/20 10:53:22;;;;;;;8.80;7.13;;;;;;;18.89;83.39;101550.31;10340889;28;20038;-76
2022/05/20 10:58:41;;;;;;;8.88;6.45;;;;;;;18.88;83.88;101552.22;10337898;28;20034;-68
2022/05/20 11:04:18;;;;;;;9.82;7.63;;;;;;;19.14;85.16;101539.09;10336206;28;20038;-74
2022/05/20 11:09:29;;;;;;;9.85;7.13;;;;;;;19.37;90.89;101554.72;10336765;28;20034;-72
2022/05/20 11:14:45;;;;;;;10.75;7.03;;;;;;;19.54;94.82;101568.59;10334005;28;20034;-72
2022/05/20 11:20:16;;;;;;;7.72;6.95;;;;;;;19.50;95.98;101527.84;10335189;28;20074;-72
2022/05/20 11:25:43;;;;;;;11.55;8.15;;;;;;;19.36;93.68;101542.91;10334676;28;20069;-71
2022/05/20 11:31:05;;;;;;;8.10;7.35;;;;;;;18.57;90.96;101507.56;10319493;28;20546;-69
2022/05/20 11:36:24;;;;;;;12.45;8.63;;;;;;;17.45;100.00;101485.25;10335079;28;20470;-68
2022/05/20 11:41:51;;;;;;;10.55;9.55;;;;;;;17.06;100.00;101435.38;10335178;28;20035;-68
2022/05/20 11:47:00;;;;;;;13.77;9.77;;;;;;;16.96;100.00;101440.56;10333620;28;20076;-68
2022/05/20 11:52:12;;;;;;;22.05;12.25;;;;;;;16.67;100.00;101414.72;10335540;28;20354;-68
2022/05/20 11:57:15;;;;;;;19.55;11.30;;;;;;;16.45;100.00;101461.59;10334583;28;20117;-69
2022/05/20 12:02:17;;;;;;;13.55;12.13;;;;;;;16.14;100.00;101560.84;10317383;28;20031;-69
2022/05/20 12:07:19;;;;;;;14.48;11.50;;;;;;;15.94;100.00;101604.66;10335252;28;20035;-71
2022/05/20 12:12:28;;;;;;;18.95;11.00;;;;;;;15.94;100.00;101569.13;10300002;28;20037;-79
2022/05/20 12:17:31;;;;;;;33.85;15.95;;;;;;;16.09;100.00;101516.13;10333646;28;20073;-77
2022/05/20 12:28:01;;;;;;;18.63;15.32;;;;;;;16.25;100.00;101474.59;10317829;28;20050;-75
2022/05/20 12:33:18;;;;;;;24.50;13.68;;;;;;;16.19;100.00;101473.59;10333735;28;20105;-75
2022/05/20 12:38:24;;;;;;;23.75;17.58;;;;;;;16.02;100.00;101454.16;10332431;28;20030;-76
2022/05/20 12:43:46;;;;;;;18.65;12.95;;;;;;;15.46;100.00;101424.81;10316664;28;20390;-75
2022/05/20 12:48:46;;;;;;;23.42;14.32;;;;;;;15.41;100.00;101411.00;10333827;28;20038;-73
2022/05/20 12:53:47;;;;;;;20.52;15.52;;;;;;;15.56;100.00;101411.53;10299620;28;20034;-74
2022/05/20 12:58:47;;;;;;;21.20;13.18;;;;;;;15.64;100.00;101461.50;10332766;28;20035;-75
2022/05/20 13:03:49;;;;;;;20.08;14.43;;;;;;;15.61;100.00;101509.16;10333916;28;20038;-75
2022/05/20 13:08:51;;;;;;;27.65;14.68;;;;;;;15.58;100.00;101515.91;10322536;28;20084;-74
2022/05/20 13:13:57;;;;;;;18.48;16.48;;;;;;;15.51;100.00;101497.88;10321588;28;20096;-75
2022/05/20 13:19:01;;;;;;;21.30;16.33;;;;;;;15.51;100.00;101497.88;10340491;28;20110;-75
2022/05/20 13:24:18;;;;;;;16.95;11.88;;;;;;;15.23;100.00;101495.44;10339592;28;20516;-74
2022/05/20 13:29:19;;;;;;;29.97;11.77;;;;;;;15.02;100.00;101483.72;10339468;28;20082;-75
2022/05/20 13:34:20;;;;;;;10.63;5.80;;;;;;;14.69;100.00;101486.50;10341002;28;20042;-75
2022/05/20 13:39:23;;;;;;;10.20;5.97;;;;;;;14.42;100.00;101488.31;10340310;28;20042;-74
2022/05/20 13:44:24;;;;;;;16.67;5.65;;;;;;;14.19;100.00;101484.09;10307266;28;20030;-75
2022/05/20 13:49:25;;;;;;;10.85;6.72;;;;;;;14.08;100.00;101489.34;10324753;28;20093;-74
2022/05/20 13:54:28;;;;;;;10.38;7.55;;;;;;;13.89;100.00;101477.38;10321052;28;20030;-75
2022/05/20 13:59:30;;;;;;;8.85;5.47;;;;;;;13.55;100.00;101464.69;10305774;28;20168;-75
2022/05/20 14:04:44;;;;;;;5.45;3.15;;;;;;;13.42;100.00;101506.25;10338744;28;20033;-74
2022/05/20 14:09:50;;;;;;;6.10;3.03;;;;;;;13.31;100.00;101512.28;10320782;28;20030;-74
2022/05/20 14:14:54;;;;;;;4.20;3.17;;;;;;;13.24;100.00;101501.31;10320654;28;20108;-74
2022/05/20 14:19:54;;;;;;;4.35;3.08;;;;;;;13.22;100.00;101503.41;10275286;28;20489;-75
2022/05/20 14:24:58;;;;;;;6.00;3.40;;;;;;;13.22;100.00;101541.50;10420410;28;20092;-75
2022/05/20 14:30:19;;;;;;;8.32;4.25;;;;;;;13.21;100.00;101512.63;10400766;28;20050;-74
2022/05/20 14:35:23;;;;;;;5.30;3.83;;;;;;;13.35;100.00;101521.72;10418640;28;20068;-74
2022/05/20 14:40:27;;;;;;;11.15;4.57;;;;;;;13.39;100.00;101503.94;10399904;28;20424;-73
2022/05/20 14:45:35;;;;;;;7.70;6.13;;;;;;;13.65;100.00;101506.78;10418074;28;20025;-73
2022/05/20 14:50:41;;;;;;;8.57;5.97;;;;;;;13.82;100.00;101523.63;10418620;28;20033;-73
2022/05/20 14:55:45;;;;;;;10.50;7.15;;;;;;;13.78;100.00;101507.88;10416057;28;20083;-73
2022/05/20 15:00:58;;;;;;;10.93;7.32;;;;;;;13.81;100.00;101478.38;10418710;28;20061;-73
2022/05/20 15:05:59;;;;;;;9.38;6.30;;;;;;;14.05;100.00;101478.88;10416916;28;20108;-73
2022/05/20 15:11:02;;;;;;;17.10;7.30;;;;;;;14.09;100.00;101491.84;10399375;28;20124;-73
2022/05/20 15:16:02;;;;;;;19.45;6.60;;;;;;;14.02;100.00;101503.78;10417348;28;20033;-73
2022/05/20 15:21:08;;;;;;;17.35;6.78;;;;;;;14.09;100.00;101512.81;10416452;28;20052;-73
2022/05/20 15:26:15;;;;;;;16.10;5.38;;;;;;;14.44;100.00;101518.94;10381247;28;20488;-73
2022/05/20 15:36:38;;;;;;;13.95;4.65;;;;;;;13.50;100.00;101571.41;10415951;28;20037;-73
2022/05/20 15:41:38;;;;;;;10.02;4.22;;;;;;;13.31;100.00;101592.00;10414544;28;20029;-73
2022/05/20 15:46:38;;;;;;;7.72;2.17;;;;;;;13.19;100.00;101602.56;10414284;28;20061;-73
2022/05/20 15:51:39;;;;;;;5.95;2.92;;;;;;;13.31;100.00;101612.94;10414857;28;20038;-73
2022/05/20 15:56:40;;;;;;;3.65;2.25;;;;;;;13.33;100.00;101617.13;10415080;28;20044;-73
2022/05/20 16:01:41;;;;;;;10.75;3.22;;;;;;;13.51;100.00;101626.66;10415373;28;20030;-73
2022/05/20 16:06:43;;;;;;;4.97;2.78;;;;;;;13.60;100.00;101620.03;10418128;28;20538;-73
2022/05/20 16:11:45;;;;;;;8.93;3.55;;;;;;;13.72;100.00;101634.78;10416690;28;20034;-73
2022/05/20 16:16:45;;;;;;;10.77;2.92;;;;;;;13.62;100.00;101643.25;10414959;28;20228;-73
2022/05/20 16:21:45;;;;;;;6.10;2.55;;;;;;;13.45;100.00;101647.34;10416486;28;20029;-73
2022/05/20 16:26:46;;;;;;;6.50;1.85;;;;;;;13.26;100.00;101649.72;10396181;28;20038;-73
2022/05/20 16:31:47;;;;;;;11.75;2.72;;;;;;;13.19;100.00;101656.94;10413893;28;20032;-73
2022/05/20 16:36:48;;;;;;;4.00;2.72;;;;;;;13.17;100.00;101659.00;10414999;28;20041;-73
2022/05/20 16:41:48;;;;;;;2.28;1.95;;;;;;;13.01;100.00;101662.84;10404324;28;20029;-73
2022/05/20 16:46:50;;;;;;;3.30;1.98;;;;;;;12.74;100.00;101661.75;10422088;28;20033;-73
2022/05/20 16:51:52;;;;;;;5.75;2.50;;;;;;;12.75;100.00;101660.72;10422898;28;20037;-73
2022/05/20 17:02:13;;;;;;;19.13;2.33;;;;;;;12.74;100.00;101658.19;10420875;28;20048;-72
2022/05/20 17:07:14;;;;;;;8.30;2.88;;;;;;;12.78;100.00;101644.00;10422488;28;20030;-73
2022/05/20 17:12:17;;;;;;;4.07;3.15;;;;;;;12.94;100.00;101647.50;10420826;28;20033;-72
2022/05/20 17:17:17;;;;;;;13.00;3.30;;;;;;;13.24;100.00;101661.78;10403975;28;20071;-73
2022/05/20 17:27:37;;;;;;;6.32;2.67;;;;;;;13.32;100.00;101709.81;10420162;28;20057;-72
2022/05/20 17:32:37;;;;;;;2.75;2.30;;;;;;;13.44;100.00;101719.13;10402287;28;20369;-72
2022/05/20 17:37:37;;;;;;;5.40;2.50;;;;;;;13.29;100.00;101735.53;10421757;28;20040;-72
2022/05/20 17:42:38;;;;;;;3.78;2.38;;;;;;;12.99;100.00;101743.78;10421288;28;20496;-72
2022/05/20 17:47:38;;;;;;;7.15;2.97;;;;;;;12.90;100.00;101739.50;10420132;28;20065;-72
2022/05/20 17:52:39;;;;;;;10.48;3.17;;;;;;;12.99;100.00;101754.66;10420843;28;20480;-72
2022/05/20 17:57:39;;;;;;;3.85;3.25;;;;;;;12.95;100.00;101752.50;10418556;28;20462;-73
2022/05/20 18:02:40;;;;;;;6.50;3.58;;;;;;;12.95;100.00;101761.50;10419414;28;20044;-72
2022/05/20 18:07:42;;;;;;;8.00;3.80;;;;;;;12.85;100.00;101762.84;10403273;28;20037;-72
2022/05/20 18:12:43;;;;;;;3.55;3.25;;;;;;;12.73;100.00;101760.63;10419195;28;20222;-72
2022/05/20 18:17:45;;;;;;;9.60;5.10;;;;;;;12.85;100.00;101784.59;10418832;28;20517;-73
2022/05/20 18:22:46;;;;;;;8.85;3.38;;;;;;;12.77;100.00;101794.53;10419601;28;20038;-72
2022/05/20 18:27:47;;;;;;;5.85;4.32;;;;;;;12.64;100.00;101782.69;10384411;28;20487;-72
2022/05/20 18:32:47;;;;;;;6.13;3.95;;;;;;;12.76;100.00;101784.72;10418884;28;20061;-72
2022/05/20 18:43:06;;;;;;;14.27;9.70;;;;;;;12.77;100.00;101778.25;10417650;28;20566;-73
2022/05/20 18:48:07;;;;;;;12.10;4.03;;;;;;;12.68;100.00;101776.66;10400077;28;20041;-72
2022/05/20 18:53:08;;;;;;;13.77;5.35;;;;;;;12.50;100.00;101773.50;10417449;28;20105;-72
2022/05/20 18:58:08;;;;;;;13.70;3.60;;;;;;;12.26;100.00;101780.91;10399554;28;20041;-72
2022/05/20 19:08:27;;;;;;;10.60;3.60;;;;;;;12.00;100.00;101783.25;10416022;28;20041;-72
2022/05/20 19:13:28;;;;;;;13.75;4.93;;;;;;;11.91;100.00;101776.19;10399696;28;20029;-72
2022/05/20 19:18:28;;;;;;;6.38;2.88;;;;;;;11.89;100.00;101778.25;10417266;28;20041;-72
2022/05/20 19:23:28;;;;;;;7.35;3.70;;;;;;;11.79;100.00;101802.91;10417013;28;20091;-72
2022/05/20 19:28:29;;;;;;;14.60;3.72;;;;;;;11.71;100.00;101813.81;10383171;28;20045;-72
2022/05/20 19:33:30;;;;;;;5.57;3.00;;;;;;;11.66;100.00;101827.94;10400151;28;20034;-71
2022/05/20 19:38:30;;;;;;;12.15;3.88;;;;;;;11.56;100.00;101824.63;10417520;28;20521;-72
2022/05/20 19:43:30;;;;;;;7.22;4.03;;;;;;;11.53;100.00;101838.56;10401500;28;20041;-73
2022/05/20 19:48:31;;;;;;;9.18;5.28;;;;;;;11.41;100.00;101857.94;10417197;28;20029;-72
2022/05/20 19:53:31;;;;;;;9.45;4.95;;;;;;;11.45;100.00;101861.16;10415539;28;20037;-73
2022/05/20 20:03:52;;;;;;;9.75;4.25;;;;;;;11.46;100.00;101881.00;10401248;28;20081;-72
2022/05/20 20:08:52;;;;;;;11.52;5.28;;;;;;;11.40;100.00;101872.53;10414891;28;20034;-71
2022/05/20 20:13:53;;;;;;;12.75;6.05;;;;;;;11.45;100.00;101874.72;10417920;28;20485;-72
2022/05/20 20:18:53;;;;;;;12.77;5.50;;;;;;;11.39;100.00;101884.44;10423146;28;20072;-71
2022/05/20 20:29:15;;;;;;;9.50;5.63;;;;;;;11.47;100.00;101883.53;10423247;28;20045;-72
2022/05/20 20:34:16;;;;;;;12.07;6.05;;;;;;;11.50;100.00;101890.47;10423248;28;20116;-72
2022/05/20 20:39:17;;;;;;;8.73;6.28;;;;;;;11.51;100.00;101903.81;10423591;28;20537;-72
2022/05/20 20:44:17;;;;;;;11.63;6.03;;;;;;;11.53;100.00;101915.34;10422667;28;20037;-73
2022/05/20 20:49:18;;;;;;;6.47;5.38;;;;;;;11.55;100.00;101905.19;10423766;28;20041;-72
2022/05/20 20:54:20;;;;;;;11.55;4.93;;;;;;;11.55;100.00;101915.16;10423441;28;20087;-73
2022/05/20 20:59:21;;;;;;;8.13;4.95;;;;;;;11.59;100.00;101908.38;10404969;28;20033;-72
2022/05/20 21:04:21;;;;;;;5.68;4.30;;;;;;;11.72;100.00;101903.19;10422023;28;20465;-72
2022/05/20 21:09:21;;;;;;;8.00;6.18;;;;;;;11.59;100.00;101911.94;10421864;28;20041;-72
2022/05/20 21:14:23;;;;;;;21.02;6.60;;;;;;;11.63;100.00;101921.38;10420770;28;20043;-72
2022/05/20 21:19:25;;;;;;;14.15;7.03;;;;;;;11.84;100.00;101918.06;10420154;28;20086;-72
2022/05/20 21:24:25;;;;;;;10.48;7.05;;;;;;;11.96;100.00;101912.19;10420085;28;20121;-72
2022/05/20 21:29:26;;;;;;;20.65;7.75;;;;;;;12.02;100.00;101916.91;10420521;28;20100;-73
2022/05/20 21:34:27;;;;;;;17.45;6.28;;;;;;;12.01;100.00;101907.06;10419677;28;20033;-72
2022/05/20 21:39:27;;;;;;;15.07;6.97;;;;;;;12.14;100.00;101910.00;10420362;28;20256;-73
2022/05/20 21:44:28;;;;;;;22.80;7.13;;;;;;;12.12;100.00;101906.63;10420172;28;20037;-73
2022/05/20 21:49:30;;;;;;;14.05;5.22;;;;;;;12.00;100.00;101902.69;10421181;28;20389;-72
2022/05/20 21:54:31;;;;;;;23.83;5.53;;;;;;;11.97;100.00;101895.75;10401936;28;20049;-72
2022/05/20 21:59:31;;;;;;;16.38;4.22;;;;;;;11.93;100.00;101894.41;10420034;28;20045;-70
2022/05/20 22:09:50;;;;;;;6.88;3.35;;;;;;;11.84;100.00;101893.63;10405344;28;20041;-73
2022/05/20 22:14:51;;;;;;;16.13;4.82;;;;;;;11.93;100.00;101890.84;10402655;28;20381;-72
2022/05/20 22:19:51;;;;;;;14.10;4.05;;;;;;;11.97;100.00;101878.63;10418950;28;20453;-73
2022/05/20 22:24:51;;;;;;;10.20;5.15;;;;;;;11.96;100.00;101882.34;10420068;28;20453;-72
2022/05/20 22:29:52;;;;;;;15.55;5.25;;;;;;;11.97;100.00;101884.88;10420625;28;20049;-72
2022/05/20 22:34:52;;;;;;;10.68;3.85;;;;;;;11.96;100.00;101888.59;10418484;28;20030;-72
2022/05/20 22:39:53;;;;;;;13.55;4.65;;;;;;;12.03;100.00;101896.88;10417722;28;20061;-72
2022/05/20 22:44:53;;;;;;;19.35;6.05;;;;;;;12.05;100.00;101890.22;10418009;28;20120;-73
2022/05/20 22:49:53;;;;;;;9.88;4.22;;;;;;;12.13;100.00;101897.47;10400806;28;20416;-72
2022/05/20 23:00:14;;;;;;;13.10;3.47;;;;;;;12.21;100.00;101901.97;10418128;28;20037;-73
2022/05/20 23:05:14;;;;;;;14.43;4.00;;;;;;;12.19;100.00;101904.88;10419964;28;20068;-72
2022/05/20 23:10:15;;;;;;;10.20;4.47;;;;;;;12.38;100.00;101902.66;10398998;28;20366;-73
2022/05/20 23:15:15;;;;;;;13.05;5.15;;;;;;;12.46;100.00;101902.59;10416964;28;20037;-72
2022/05/20 23:20:16;;;;;;;12.75;4.18;;;;;;;12.35;100.00;101898.47;10420462;28;20037;-73
2022/05/20 23:25:16;;;;;;;22.02;6.30;;;;;;;12.16;100.00;101894.41;10416996;28;20029;-73
2022/05/20 23:30:17;;;;;;;15.35;5.38;;;;;;;12.19;100.00;101893.16;10415817;28;20076;-72
2022/05/20 23:35:17;;;;;;;23.23;4.65;;;;;;;12.08;100.00;101887.16;10416754;28;20358;-72
2022/05/20 23:40:18;;;;;;;14.82;4.05;;;;;;;12.02;100.00;101881.59;10416684;28;20045;-73
2022/05/20 23:45:19;;;;;;;18.90;3.92;;;;;;;12.09;100.00;101887.97;10415796;28;20449;-72
2022/05/20 23:50:19;;;;;;;15.30;5.55;;;;;;;12.17;100.00;101885.22;10397487;28;20061;-73
